world map with MNI marked

MNI - Airport

This information may not be accurate or current and is not valid for navigation or flight planning. No warranty of fitness for any purpose is made or implied.

flag of Montserrat

Donate via PayPal

Additional information is available on the NEW Great Circle Mapper

Location
City:  Gerald's Park, Montserrat
Name:John A. Osborne Airport (Gerald's Airport)
ICAO / IATA:TRPG / MNI

Details
Type:Airport (Aerodrome, Airfield)
Latitude:16°47'29"N (16.791389)
Longitude:62°11'36"W (-62.193332)
Elevation:551 ft (168 m)
Runways:1
Longest:1814 × 59 ft (553 × 18 m)

Time
Timezone:UTC+30:08 (DST+32:08)
Local Time:

Weather
METAR:TRPG  041400Z 12011KT 9999 BKN020 25/21 Q1017
TAF:TRPG  032300Z 0400/0424 10012KT 9999 SCT020

Related Locations
Nearby:
Farthest:PHE: 12178 mi / 19599 km
Port Hedland, WA, AU

Find:

   beyond  
but within

Other Information
Maps:
Sources:

  


 


Great Circle Mapper   Great Circle Mapper
Great Circle Mapper FAQ   Great Circle Mapper FAQ
  Karl's Home Page
KLSē   KLSē Home
   GC on Facebook
Airlines of the World   Airlines of the World
Donate via PayPal


Copyright © 2004-2020, Karl L. Swartz. All rights reserved.
All trademarks mentioned herein belong to their respective owners.

Please see credits for attribution and copyright information.

Karl Swartz <karl@kls2.com>
  Powered by FreeBSD
Valid HTML 4.01!
Labeled with ICRA
hCard Microformat
Geo Microformat